Aérodrome :
LOGIN :

S'inscrire | Disclaimer

   EN    FR    IT 

 










Légende :    VFR   VFR Marginal   IFR   IFR Intensif   IFR Très Intensif
Visi : 
Plafond : 
>= 8 km
>= 3000ft
5 à 8 km
1000 à 3000 ft
1500m à 5 km
500 à 1000 ft
800 à 1500m
200 à 500 ft
< 800m
< 200 ft
Symboles :   Orages  Brouillard  Fortes neiges  Fortes précipitations  Vent > 20 kt
SIGMETs :   Divers  Orages  Givrage  Turbulence  Onde Orograph.  Cendres Volcan.






- Altitude de l'aérodrome : 17 ft
- Code IATA : GRQ


EHGG - Groningen Eelde

DERNIER METAR :
  • 180325Z AUTO 16005KT 3900 BR FEW004 SCT007 BKN008 12/11 Q1005

METARs EXPIRÉS :
  • 180255Z AUTO 15005KT 130V190 4000 -RA FEW007 FEW015CB SCT032 BKN037 12/11 Q1006
  • 180225Z AUTO 17007KT 130V200 5000 BR OVC005 12/11 Q1006
  • 180155Z AUTO 14005KT 110V170 6000 FEW006 11/11 Q1006
  • 180125Z AUTO 13004KT 100V170 6000 NSC 11/11 Q1006
  • 180055Z AUTO 18006KT 120V210 8000 SCT007 BKN008 OVC009 12/11 Q1007
  • 180025Z AUTO 19005KT 160V220 8000 SCT005 OVC007 12/11 Q1007

TAF TAF EHGG
Valide du 18 à 00h jusqu'au 19 à 06h UTC


172315Z 1800/1906 16008KT 4000 BR BKN005
PROB40 1802/1805 8000 NSW BKN020
BECMG 1805/1808 19011KT 9999 NSW BKN025
BECMG 1809/1812 22018G28KT
TEMPO 1810/1815 22022G33KT 4000 SHRA SHRAGS SCT020CB
PROB30
TEMPO 1815/1821 7000 -SHRA FEW020CB
BECMG 1900/1903 20012KT



MET'MAP, la Météo Aéronautique d'un coup d'oeil ! - Copyright ORBIFLY Décembre 2007 - Disclaimer

ORBIFLY MET'MAP TEAM :

Programmation & Développement : Alexandra Zaïnal
Conception & Développement : Baudouin d'Aumeries
Co-Programmation & Développement : Marc-Olivier Méhu
Soutien technique & logistique : Manuel Goepfert

Contact : metmap@orbifly.com




SOURCES & CREDITS :

   NOAA